Sylvan Township, Michigan
Current Conditions -  °F | °C
As of 12:21 PM on Thursday 27 Nov 2014 (Local Time) from KARB Reporting Station
Broken Clouds Broken Clouds  
Wind Chill: 26°   Ceiling: 2600
Heat Index: 35°   Visibility: 10mi
Dew Point: 22°   Wind: 14mph
Humidity: 59%   Direction: 280°W
Pressure: 30.15"   Gusts: NA
Location:  42.3129°N, 84.0322°W
Report Text: KARB 271721Z 28012KT 10SM BKN026 BKN070 BKN090 02/M06 A3015 RMK AO2 T00171056
Loading
Personal Weather Stations






























Interactive Weather Map New forecast layout! Learn more

10-Day Weather Forecast

Advertisements
Track Severe Weather on mobile